createdAt,value
2018-11-28T00:00:42.805Z,1010.82
2018-11-28T00:01:35.282Z,1010.8
2018-11-28T00:02:27.532Z,1010.81
2018-11-28T00:03:19.813Z,1010.79
2018-11-28T00:04:12.375Z,1010.78
2018-11-28T00:05:05.829Z,1010.84
2018-11-28T00:05:57.900Z,1010.8
2018-11-28T00:06:50.254Z,1010.79
2018-11-28T00:07:42.386Z,1010.8
2018-11-28T00:08:34.818Z,1010.77
2018-11-28T00:09:27.333Z,1010.78
2018-11-28T00:10:19.825Z,1010.72
2018-11-28T00:11:11.778Z,1010.68
2018-11-28T00:12:04.276Z,1010.7
2018-11-28T00:12:56.291Z,1010.67
2018-11-28T00:13:48.826Z,1010.67
2018-11-28T00:14:41.171Z,1010.66
2018-11-28T00:15:33.766Z,1010.69
2018-11-28T00:16:25.854Z,1010.68
2018-11-28T00:17:18.211Z,1010.7
2018-11-28T00:18:10.258Z,1010.66
2018-11-28T00:19:03.058Z,1010.7
2018-11-28T00:19:55.249Z,1010.72
2018-11-28T00:20:47.715Z,1010.67
2018-11-28T00:21:40.008Z,1010.66
2018-11-28T00:22:32.484Z,1010.64
2018-11-28T00:23:24.776Z,1010.58
2018-11-28T00:24:17.156Z,1010.57
2018-11-28T00:25:09.117Z,1010.55
2018-11-28T00:26:00.957Z,1010.54
2018-11-28T00:26:52.749Z,1010.52
2018-11-28T00:27:45.226Z,1010.5
2018-11-28T00:28:37.383Z,1010.51
2018-11-28T00:29:29.983Z,1010.47
2018-11-28T00:30:22.218Z,1010.47
2018-11-28T00:31:14.218Z,1010.45
2018-11-28T00:32:06.350Z,1010.44
2018-11-28T00:32:58.545Z,1010.45
2018-11-28T00:33:50.764Z,1010.46
2018-11-28T00:34:42.912Z,1010.46
2018-11-28T00:35:35.671Z,1010.46
2018-11-28T00:36:27.790Z,1010.43
2018-11-28T00:37:19.959Z,1010.45
2018-11-28T00:38:12.330Z,1010.49
2018-11-28T00:39:04.845Z,1010.44
2018-11-28T00:39:57.349Z,1010.48
2018-11-28T00:40:49.796Z,1010.43
2018-11-28T00:41:42.251Z,1010.44
2018-11-28T00:42:34.825Z,1010.46
2018-11-28T00:43:27.738Z,1010.4
2018-11-28T00:44:20.320Z,1010.42
2018-11-28T00:45:12.910Z,1010.48
2018-11-28T00:46:05.449Z,1010.41
2018-11-28T00:46:58.006Z,1010.42
2018-11-28T00:47:50.294Z,1010.42
2018-11-28T00:48:42.989Z,1010.34
2018-11-28T00:49:35.157Z,1010.43
2018-11-28T00:50:27.627Z,1010.46
2018-11-28T00:51:19.983Z,1010.38
2018-11-28T00:52:12.317Z,1010.38
2018-11-28T00:53:04.921Z,1010.35
2018-11-28T00:53:56.335Z,1010.35
2018-11-28T00:54:48.800Z,1010.33
2018-11-28T00:55:41.685Z,1010.36
2018-11-28T00:56:34.268Z,1010.33
2018-11-28T00:57:25.976Z,1010.35
2018-11-28T00:58:18.037Z,1010.35
2018-11-28T00:59:10.451Z,1010.37
2018-11-28T01:00:02.621Z,1010.39
2018-11-28T01:00:54.834Z,1010.34
2018-11-28T01:01:46.650Z,1010.3
2018-11-28T01:02:38.726Z,1010.3
2018-11-28T01:03:31.178Z,1010.26
2018-11-28T01:04:23.212Z,1010.29
2018-11-28T01:05:15.486Z,1010.28
2018-11-28T01:06:07.382Z,1010.24
2018-11-28T01:06:59.473Z,1010.29
2018-11-28T01:07:51.717Z,1010.3
2018-11-28T01:08:43.999Z,1010.3
2018-11-28T01:11:29.421Z,1010.29
2018-11-28T01:12:21.938Z,1010.27
2018-11-28T01:13:14.940Z,1010.3
2018-11-28T01:15:40.074Z,1010.32
2018-11-28T01:16:20.128Z,1010.29
2018-11-28T01:17:00.563Z,1010.29
2018-11-28T01:17:40.908Z,1010.3
2018-11-28T01:18:21.309Z,1010.29
2018-11-28T01:19:01.702Z,1010.27
2018-11-28T01:19:42.116Z,1010.29
2018-11-28T01:20:22.511Z,1010.28
2018-11-28T01:21:02.874Z,1010.23
2018-11-28T01:21:43.250Z,1010.22
2018-11-28T01:22:23.628Z,1010.25
2018-11-28T01:23:04.043Z,1010.29
2018-11-28T01:23:44.411Z,1010.3
2018-11-28T01:24:24.821Z,1010.27
2018-11-28T01:25:05.206Z,1010.28
2018-11-28T01:25:45.604Z,1010.3
2018-11-28T01:28:05.143Z,1010.21
2018-11-28T01:28:46.474Z,1010.18
2018-11-28T01:29:25.926Z,1010.21
2018-11-28T01:30:06.324Z,1010.19
2018-11-28T01:32:03.666Z,1010.26
2018-11-28T01:32:44.133Z,1010.17
2018-11-28T01:33:24.649Z,1010.22
2018-11-28T01:34:05.017Z,1010.26
2018-11-28T01:34:45.412Z,1010.23
2018-11-28T01:35:25.821Z,1010.25
2018-11-28T01:36:06.178Z,1010.27
2018-11-28T01:36:46.599Z,1010.26
2018-11-28T01:38:53.224Z,1010.29
2018-11-28T01:39:45.377Z,1010.25
2018-11-28T01:40:37.682Z,1010.24
2018-11-28T01:41:30.074Z,1010.27
2018-11-28T01:42:22.376Z,1010.22
2018-11-28T01:43:14.821Z,1010.25
2018-11-28T01:44:07.195Z,1010.23
2018-11-28T01:44:59.636Z,1010.33
2018-11-28T01:45:53.119Z,1010.32
2018-11-28T01:46:45.153Z,1010.29
2018-11-28T01:47:37.380Z,1010.32
2018-11-28T01:48:29.868Z,1010.34
2018-11-28T01:49:21.811Z,1010.3
2018-11-28T01:50:14.282Z,1010.26
2018-11-28T01:51:06.757Z,1010.3
2018-11-28T01:52:00.085Z,1010.28
2018-11-28T01:52:52.246Z,1010.26
2018-11-28T01:53:44.827Z,1010.32
2018-11-28T01:54:37.273Z,1010.31
2018-11-28T01:55:29.884Z,1010.31
2018-11-28T01:56:22.474Z,1010.27
2018-11-28T01:57:14.664Z,1010.28
2018-11-28T01:58:07.378Z,1010.26
2018-11-28T01:58:59.710Z,1010.29
2018-11-28T01:59:52.452Z,1010.26
2018-11-28T02:00:44.590Z,1010.24
2018-11-28T02:01:36.547Z,1010.23
2018-11-28T02:02:29.609Z,1010.22
2018-11-28T02:03:22.380Z,1010.17
2018-11-28T02:04:14.198Z,1010.15
2018-11-28T02:05:06.783Z,1010.12
2018-11-28T02:05:58.629Z,1010.13
2018-11-28T02:06:50.459Z,1010.25
2018-11-28T02:07:43.641Z,1010.19
2018-11-28T02:08:35.914Z,1010.21
2018-11-28T02:09:28.141Z,1010.15
2018-11-28T02:10:20.265Z,1010.15
2018-11-28T02:11:12.508Z,1010.15
2018-11-28T02:12:04.667Z,1010.18
2018-11-28T02:12:56.811Z,1010.19
2018-11-28T02:13:49.315Z,1010.15
2018-11-28T02:14:42.256Z,1010.12
2018-11-28T02:15:30.743Z,1010.14
2018-11-28T02:16:10.727Z,1010.14
2018-11-28T02:16:51.196Z,1010.16
2018-11-28T02:17:31.570Z,1010.18
2018-11-28T02:18:12.053Z,1010.19
2018-11-28T02:18:52.467Z,1010.17
2018-11-28T02:19:32.787Z,1010.15
2018-11-28T02:20:13.150Z,1010.18
2018-11-28T02:20:54.442Z,1010.18
2018-11-28T02:21:34.773Z,1010.17
2018-11-28T02:22:15.152Z,1010.18
2018-11-28T02:22:55.666Z,1010.18
2018-11-28T02:23:36.032Z,1010.18
2018-11-28T02:24:16.415Z,1010.17
2018-11-28T02:24:56.794Z,1010.09
2018-11-28T02:25:37.239Z,1010.16
2018-11-28T02:26:17.578Z,1010.09
2018-11-28T02:26:58.002Z,1010.1
2018-11-28T02:27:38.351Z,1010.08
2018-11-28T02:28:18.767Z,1010.12
2018-11-28T02:28:59.152Z,1010.1
2018-11-28T02:29:39.513Z,1010.11
2018-11-28T02:30:19.919Z,1010.11
2018-11-28T02:31:00.414Z,1010.15
2018-11-28T02:31:40.787Z,1010.09
2018-11-28T02:32:21.288Z,1010.06
2018-11-28T02:33:01.590Z,1010.09
2018-11-28T02:33:42.039Z,1010.12
2018-11-28T02:34:22.335Z,1010.07
2018-11-28T02:35:02.923Z,1010.14
2018-11-28T02:35:47.003Z,1010.13
2018-11-28T02:36:27.236Z,1010.07
2018-11-28T02:37:07.726Z,1010.08
2018-11-28T02:37:48.077Z,1010.15
2018-11-28T02:38:28.518Z,1010.04
2018-11-28T02:39:08.903Z,1010.15
2018-11-28T02:39:49.365Z,1010.09
2018-11-28T02:40:29.816Z,1010.04
2018-11-28T02:41:10.182Z,1010.04
2018-11-28T02:41:50.570Z,1010.06
2018-11-28T02:42:30.918Z,1010.03
2018-11-28T02:43:11.361Z,1010
2018-11-28T02:43:51.744Z,1009.99
2018-11-28T02:44:32.154Z,1009.96
2018-11-28T02:45:12.613Z,1009.97
2018-11-28T02:45:53.014Z,1009.92
2018-11-28T02:46:33.417Z,1009.93
2018-11-28T02:47:13.842Z,1009.93
2018-11-28T02:47:54.194Z,1009.9
2018-11-28T02:48:34.624Z,1009.97
2018-11-28T02:49:14.951Z,1009.95
2018-11-28T02:49:55.342Z,1009.99
2018-11-28T02:50:35.801Z,1009.94
2018-11-28T02:51:16.133Z,1009.95
2018-11-28T02:51:56.549Z,1009.98
2018-11-28T02:52:36.992Z,1009.98
2018-11-28T02:53:17.464Z,1009.99
2018-11-28T02:53:57.797Z,1009.96
2018-11-28T02:54:38.297Z,1009.95
2018-11-28T02:55:18.722Z,1009.92
2018-11-28T02:55:59.159Z,1009.96
2018-11-28T02:56:39.488Z,1009.94
2018-11-28T02:57:19.882Z,1009.95
2018-11-28T02:58:00.214Z,1009.97
2018-11-28T02:58:40.587Z,1009.96
2018-11-28T02:59:21.020Z,1009.95
2018-11-28T03:00:01.408Z,1009.93
2018-11-28T03:00:41.825Z,1010.02
2018-11-28T03:01:22.124Z,1010
2018-11-28T03:02:02.584Z,1009.98
2018-11-28T03:02:42.968Z,1009.94
2018-11-28T03:03:23.362Z,1009.94
2018-11-28T03:04:03.708Z,1009.97
2018-11-28T03:04:44.114Z,1010.04
2018-11-28T03:05:24.528Z,1009.96
2018-11-28T03:06:04.933Z,1009.96
2018-11-28T03:06:45.319Z,1009.94
2018-11-28T03:07:25.747Z,1009.96
2018-11-28T03:08:06.110Z,1009.97
2018-11-28T03:08:46.520Z,1010
2018-11-28T03:09:26.957Z,1010
2018-11-28T03:10:07.361Z,1009.97
2018-11-28T03:10:47.778Z,1009.97
2018-11-28T03:11:28.141Z,1009.98
2018-11-28T03:12:08.486Z,1009.98
2018-11-28T03:12:48.924Z,1010.01
2018-11-28T03:13:29.302Z,1009.99
2018-11-28T03:14:09.737Z,1010
2018-11-28T03:14:50.124Z,1009.97
2018-11-28T03:15:30.533Z,1009.97
2018-11-28T03:16:10.865Z,1009.99
2018-11-28T03:16:51.241Z,1009.97
2018-11-28T03:17:31.581Z,1009.96
2018-11-28T03:18:11.989Z,1009.96
2018-11-28T03:18:52.372Z,1009.99
2018-11-28T03:19:32.890Z,1009.97
2018-11-28T03:20:13.179Z,1010.04
2018-11-28T03:20:53.609Z,1009.99
2018-11-28T03:21:33.947Z,1009.93
2018-11-28T03:22:14.319Z,1009.97
2018-11-28T03:22:54.897Z,1009.94
2018-11-28T03:23:35.225Z,1009.93
2018-11-28T03:24:15.663Z,1009.87
2018-11-28T03:24:56.101Z,1009.97
2018-11-28T03:25:36.482Z,1009.9
2018-11-28T03:26:16.846Z,1009.93
2018-11-28T03:26:57.313Z,1009.94
2018-11-28T03:27:37.638Z,1009.91
2018-11-28T03:28:17.954Z,1009.93
2018-11-28T03:28:58.368Z,1009.87
2018-11-28T03:29:38.806Z,1009.89
2018-11-28T03:30:19.181Z,1009.91
2018-11-28T03:30:59.580Z,1009.91
2018-11-28T03:31:40.046Z,1009.84
2018-11-28T03:32:20.350Z,1009.89
2018-11-28T03:33:00.848Z,1009.91
2018-11-28T03:33:41.227Z,1009.92
2018-11-28T03:34:21.627Z,1009.86
2018-11-28T03:35:01.968Z,1009.9
2018-11-28T03:35:42.391Z,1009.94
2018-11-28T03:36:22.824Z,1009.93
2018-11-28T03:37:03.277Z,1009.9
2018-11-28T03:37:43.709Z,1009.88
2018-11-28T03:38:24.055Z,1009.86
2018-11-28T03:39:04.459Z,1009.88
2018-11-28T03:39:44.928Z,1009.88
2018-11-28T03:40:25.217Z,1009.86
2018-11-28T03:41:05.585Z,1009.84
2018-11-28T03:41:46.034Z,1009.81
2018-11-28T03:42:26.471Z,1009.86
2018-11-28T03:43:06.823Z,1009.83
2018-11-28T03:43:47.185Z,1009.84
2018-11-28T03:44:27.541Z,1009.85
2018-11-28T03:45:08.032Z,1009.79
2018-11-28T03:45:48.331Z,1009.75
2018-11-28T03:46:28.696Z,1009.73
2018-11-28T03:47:09.217Z,1009.77
2018-11-28T03:47:49.531Z,1009.72
2018-11-28T03:48:30.506Z,1009.76
2018-11-28T03:49:10.787Z,1009.75
2018-11-28T03:49:51.198Z,1009.8
2018-11-28T03:50:31.814Z,1009.72
2018-11-28T03:51:12.205Z,1009.7
2018-11-28T03:51:52.689Z,1009.76
2018-11-28T03:52:33.048Z,1009.69
2018-11-28T03:53:13.440Z,1009.72
2018-11-28T03:53:54.656Z,1009.75
2018-11-28T03:54:34.984Z,1009.71
2018-11-28T03:55:15.393Z,1009.76
2018-11-28T03:55:55.938Z,1009.73
2018-11-28T03:56:36.352Z,1009.71
2018-11-28T03:57:17.508Z,1009.74
2018-11-28T03:57:57.975Z,1009.66
2018-11-28T03:58:38.275Z,1009.66
2018-11-28T03:59:18.660Z,1009.65
2018-11-28T03:59:59.352Z,1009.63
2018-11-28T04:00:39.735Z,1009.66
2018-11-28T04:01:20.213Z,1009.64
2018-11-28T04:02:00.482Z,1009.62
2018-11-28T04:02:41.076Z,1009.57
2018-11-28T04:03:21.546Z,1009.63
2018-11-28T04:04:01.933Z,1009.69
2018-11-28T04:04:42.895Z,1009.68
2018-11-28T04:05:23.100Z,1009.67
2018-11-28T04:06:03.819Z,1009.68
2018-11-28T04:06:44.120Z,1009.61
2018-11-28T04:07:24.468Z,1009.64
2018-11-28T04:08:04.904Z,1009.59
2018-11-28T04:08:45.391Z,1009.64
2018-11-28T04:09:25.714Z,1009.6
2018-11-28T04:10:06.295Z,1009.67
2018-11-28T04:10:47.015Z,1009.62
2018-11-28T04:11:27.472Z,1009.62
2018-11-28T04:12:08.016Z,1009.67
2018-11-28T04:12:48.427Z,1009.66
2018-11-28T04:13:28.786Z,1009.67
2018-11-28T04:14:09.213Z,1009.6
2018-11-28T04:14:49.585Z,1009.61
2018-11-28T04:15:30.055Z,1009.61
2018-11-28T04:16:10.456Z,1009.6
2018-11-28T04:16:50.960Z,1009.6
2018-11-28T04:17:31.382Z,1009.59
2018-11-28T04:18:12.079Z,1009.63
2018-11-28T04:18:52.263Z,1009.59
2018-11-28T04:19:32.638Z,1009.6
2018-11-28T04:20:13.089Z,1009.64
2018-11-28T04:20:53.521Z,1009.66
2018-11-28T04:21:34.530Z,1009.62
2018-11-28T04:22:14.864Z,1009.7
2018-11-28T04:22:55.657Z,1009.63
2018-11-28T04:23:36.478Z,1009.69
2018-11-28T04:24:16.868Z,1009.72
2018-11-28T04:24:57.250Z,1009.7
2018-11-28T04:25:37.686Z,1009.78
2018-11-28T04:26:18.105Z,1009.72
2018-11-28T04:26:58.568Z,1009.74
2018-11-28T05:06:32.324Z,1009.69
2018-11-28T05:07:12.748Z,1009.8
2018-11-28T05:07:53.916Z,1009.66
2018-11-28T05:08:34.283Z,1009.72
2018-11-28T05:09:14.747Z,1009.7
2018-11-28T05:09:55.151Z,1009.7
2018-11-28T05:12:19.855Z,1009.7
2018-11-28T05:13:08.720Z,1009.7
2018-11-28T05:13:49.030Z,1009.64
2018-11-28T05:14:30.268Z,1009.65
2018-11-28T05:15:10.934Z,1009.64
2018-11-28T05:15:51.107Z,1009.59
2018-11-28T05:16:31.554Z,1009.67
2018-11-28T05:17:11.951Z,1009.57
2018-11-28T05:17:53.371Z,1009.62
2018-11-28T05:18:32.892Z,1009.67
2018-11-28T05:19:13.832Z,1009.64
2018-11-28T05:19:54.094Z,1009.66
2018-11-28T05:20:35.074Z,1009.61
2018-11-28T05:21:15.905Z,1009.65
2018-11-28T05:21:56.444Z,1009.63
2018-11-28T05:22:37.327Z,1009.67
2018-11-28T05:23:17.867Z,1009.67
2018-11-28T05:23:58.494Z,1009.59
2018-11-28T05:24:38.872Z,1009.65
2018-11-28T05:25:19.545Z,1009.69
2018-11-28T05:26:00.130Z,1009.66
2018-11-28T05:26:40.599Z,1009.65
2018-11-28T05:27:21.290Z,1009.7
2018-11-28T05:28:01.906Z,1009.68
2018-11-28T05:28:42.293Z,1009.72
2018-11-28T05:29:22.855Z,1009.66
2018-11-28T05:30:03.382Z,1009.75
2018-11-28T05:30:43.788Z,1009.69
2018-11-28T05:31:24.217Z,1009.67
2018-11-28T05:32:05.256Z,1009.68
2018-11-28T05:32:46.226Z,1009.76
2018-11-28T05:33:26.335Z,1009.72
2018-11-28T05:34:06.570Z,1009.79
2018-11-28T05:34:46.975Z,1009.62
2018-11-28T05:35:27.532Z,1009.66
2018-11-28T05:36:08.146Z,1009.61
2018-11-28T05:36:48.547Z,1009.6
2018-11-28T05:37:28.916Z,1009.65
2018-11-28T05:38:09.461Z,1009.62
2018-11-28T05:38:50.485Z,1009.64
2018-11-28T05:39:31.119Z,1009.62
2018-11-28T05:40:11.522Z,1009.66
2018-11-28T05:40:51.944Z,1009.61
2018-11-28T05:41:32.304Z,1009.58
2018-11-28T05:42:12.738Z,1009.64
2018-11-28T05:42:53.140Z,1009.65
2018-11-28T05:43:33.670Z,1009.65
2018-11-28T05:44:14.257Z,1009.62
2018-11-28T05:44:54.809Z,1009.68
2018-11-28T05:45:35.487Z,1009.63
2018-11-28T05:46:24.487Z,1009.63
2018-11-28T05:47:02.335Z,1009.64
2018-11-28T05:47:42.888Z,1009.65
2018-11-28T05:52:35.745Z,1009.72
2018-11-28T05:53:16.931Z,1009.87
2018-11-28T05:53:57.385Z,1009.75
2018-11-28T05:54:37.779Z,1009.8
2018-11-28T05:55:18.225Z,1009.81
2018-11-28T05:55:58.664Z,1009.79
2018-11-28T05:56:39.024Z,1009.78
2018-11-28T05:57:19.382Z,1009.73
2018-11-28T05:57:59.901Z,1009.78
2018-11-28T05:58:40.272Z,1009.78
2018-11-28T05:59:20.643Z,1009.8
2018-11-28T06:00:01.045Z,1009.72
2018-11-28T06:00:41.431Z,1009.8
2018-11-28T06:01:22.232Z,1009.77
2018-11-28T06:02:02.624Z,1009.71
2018-11-28T06:02:43.149Z,1009.78
2018-11-28T06:04:50.007Z,1009.77
2018-11-28T06:05:42.273Z,1009.75
2018-11-28T06:06:34.888Z,1009.8
2018-11-28T06:07:28.248Z,1009.73
2018-11-28T06:08:20.876Z,1009.76
2018-11-28T06:09:13.193Z,1009.73
2018-11-28T06:10:05.846Z,1009.78
2018-11-28T06:10:58.408Z,1009.76
2018-11-28T06:11:50.899Z,1009.75
2018-11-28T06:12:43.771Z,1009.85
2018-11-28T06:13:35.858Z,1009.7
2018-11-28T06:14:28.341Z,1009.95
2018-11-28T06:15:21.859Z,1009.82
2018-11-28T06:16:13.956Z,1009.72
2018-11-28T06:17:06.045Z,1009.76
2018-11-28T06:17:58.168Z,1009.65
2018-11-28T06:18:51.178Z,1009.76
2018-11-28T06:19:43.551Z,1009.73
2018-11-28T06:20:35.972Z,1009.7
2018-11-28T06:21:27.897Z,1009.75
2018-11-28T06:22:20.221Z,1009.8
2018-11-28T06:23:12.723Z,1009.71
2018-11-28T06:24:06.233Z,1009.69
2018-11-28T06:24:58.667Z,1009.73
2018-11-28T06:25:51.690Z,1009.66
2018-11-28T06:26:45.539Z,1009.66
2018-11-28T06:27:39.633Z,1009.62
2018-11-28T06:28:31.558Z,1009.71
2018-11-28T06:29:25.266Z,1009.68
2018-11-28T06:31:48.304Z,1009.75
2018-11-28T06:32:28.913Z,1009.7
2018-11-28T06:33:09.600Z,1009.69
2018-11-28T06:33:50.071Z,1009.68
2018-11-28T06:34:32.018Z,1009.67
2018-11-28T06:35:14.213Z,1009.65
2018-11-28T06:35:54.736Z,1009.64
2018-11-28T06:36:35.138Z,1009.66
2018-11-28T06:37:15.634Z,1009.64
2018-11-28T06:37:55.974Z,1009.69
2018-11-28T06:38:36.559Z,1009.67
2018-11-28T06:40:31.643Z,1009.75
2018-11-28T06:41:12.573Z,1009.71
2018-11-28T06:41:52.453Z,1009.73
2018-11-28T06:42:32.874Z,1009.67
2018-11-28T06:43:13.241Z,1009.76
2018-11-28T06:45:15.310Z,1009.7
2018-11-28T06:46:07.741Z,1009.77
2018-11-28T06:47:00.931Z,1009.75
2018-11-28T06:47:54.099Z,1009.79
2018-11-28T06:48:49.303Z,1009.85
2018-11-28T06:49:45.426Z,1009.8
2018-11-28T06:50:43.461Z,1009.8
2018-11-28T06:51:46.154Z,1009.85
2018-11-28T06:52:46.950Z,1009.89
2018-11-28T06:53:39.443Z,1009.91
2018-11-28T06:54:31.751Z,1009.85
2018-11-28T06:55:24.485Z,1009.87
2018-11-28T06:56:17.182Z,1009.88
2018-11-28T06:57:10.360Z,1009.93
2018-11-28T06:58:02.783Z,1009.9
2018-11-28T06:59:04.164Z,1009.89
2018-11-28T07:01:44.043Z,1009.97
2018-11-28T07:02:23.662Z,1010.05
2018-11-28T07:03:04.217Z,1009.91
2018-11-28T07:03:44.880Z,1009.92
2018-11-28T07:04:26.011Z,1009.9
2018-11-28T07:05:06.376Z,1009.96
2018-11-28T07:05:47.155Z,1009.95
2018-11-28T07:06:28.711Z,1009.96
2018-11-28T07:07:09.345Z,1009.97
2018-11-28T07:07:50.522Z,1009.95
2018-11-28T07:08:30.864Z,1009.98
2018-11-28T07:09:11.701Z,1009.99
2018-11-28T07:09:52.171Z,1010.04
2018-11-28T07:10:32.539Z,1010
2018-11-28T07:11:13.023Z,1010.03
2018-11-28T07:11:53.414Z,1010.04
2018-11-28T07:12:33.899Z,1010.07
2018-11-28T07:13:14.315Z,1010.06
2018-11-28T07:13:54.728Z,1010.06
2018-11-28T07:14:35.349Z,1010.09
2018-11-28T07:15:15.773Z,1010.02
2018-11-28T07:15:56.162Z,1010.07
2018-11-28T07:16:36.615Z,1010.14
2018-11-28T07:17:17.288Z,1010.09
2018-11-28T07:17:57.672Z,1010.12
2018-11-28T07:18:38.143Z,1010.13
2018-11-28T07:19:19.005Z,1010.18
2018-11-28T07:19:59.758Z,1010.22
2018-11-28T07:20:42.398Z,1010.17
2018-11-28T07:21:22.881Z,1010.19
2018-11-28T07:22:03.565Z,1010.19
2018-11-28T07:22:43.627Z,1010.24
2018-11-28T07:23:24.028Z,1010.24
2018-11-28T07:24:04.640Z,1010.19
2018-11-28T07:24:45.023Z,1010.27
2018-11-28T07:25:25.426Z,1010.24
2018-11-28T07:27:46.818Z,1010.24
2018-11-28T07:28:39.731Z,1010.35
2018-11-28T07:29:32.085Z,1010.3
2018-11-28T07:30:26.691Z,1010.22
2018-11-28T07:31:19.129Z,1010.27
2018-11-28T07:32:11.735Z,1010.29
2018-11-28T07:33:04.489Z,1010.24
2018-11-28T07:34:03.367Z,1010.28
2018-11-28T07:34:57.160Z,1010.23
2018-11-28T07:35:50.327Z,1010.24
2018-11-28T07:36:46.985Z,1010.33
2018-11-28T07:37:43.221Z,1010.31
2018-11-28T07:38:41.033Z,1010.29
2018-11-28T07:39:40.471Z,1010.35
2018-11-28T07:40:51.794Z,1010.31
2018-11-28T07:41:46.150Z,1010.28
2018-11-28T07:42:53.546Z,1010.38
2018-11-28T07:45:33.562Z,1010.4
2018-11-28T07:46:14.180Z,1010.34
2018-11-28T07:46:54.865Z,1010.38
2018-11-28T07:47:35.880Z,1010.33
2018-11-28T07:48:16.488Z,1010.35
2018-11-28T07:48:58.050Z,1010.35
2018-11-28T07:49:37.691Z,1010.39
2018-11-28T07:50:18.314Z,1010.34
2018-11-28T07:50:58.745Z,1010.37
2018-11-28T07:51:39.285Z,1010.36
2018-11-28T07:52:20.364Z,1010.39
2018-11-28T07:53:00.526Z,1010.4
2018-11-28T07:53:41.273Z,1010.37
2018-11-28T07:54:22.029Z,1010.41
2018-11-28T07:55:02.506Z,1010.38
2018-11-28T07:55:43.213Z,1010.3
2018-11-28T07:56:23.990Z,1010.32
2018-11-28T07:57:04.192Z,1010.36
2018-11-28T07:57:46.061Z,1010.33
2018-11-28T07:58:26.693Z,1010.33
2018-11-28T08:00:26.265Z,1010.42
2018-11-28T08:01:06.634Z,1010.36
2018-11-28T08:01:47.414Z,1010.39
2018-11-28T08:02:28.656Z,1010.36
2018-11-28T08:03:08.675Z,1010.36
2018-11-28T08:03:49.727Z,1010.43
2018-11-28T08:04:29.859Z,1010.45
2018-11-28T08:05:10.632Z,1010.43
2018-11-28T08:05:51.924Z,1010.47
2018-11-28T08:06:32.189Z,1010.47
2018-11-28T08:07:12.155Z,1010.48
2018-11-28T08:07:53.640Z,1010.44
2018-11-28T08:08:33.471Z,1010.57
2018-11-28T08:09:15.182Z,1010.55
2018-11-28T08:09:55.318Z,1010.57
2018-11-28T08:10:35.722Z,1010.51
2018-11-28T08:11:16.120Z,1010.57
2018-11-28T08:11:56.568Z,1010.5
2018-11-28T08:12:36.963Z,1010.54
2018-11-28T08:13:17.814Z,1010.57
2018-11-28T08:13:58.073Z,1010.53
2018-11-28T08:14:38.547Z,1010.55
2018-11-28T08:15:19.013Z,1010.58
2018-11-28T08:15:59.715Z,1010.57
2018-11-28T08:16:40.267Z,1010.64
2018-11-28T08:17:20.659Z,1010.56
2018-11-28T08:18:01.115Z,1010.6
2018-11-28T08:20:32.656Z,1010.58
2018-11-28T08:23:01.466Z,1010.54
2018-11-28T08:23:42.253Z,1010.55
2018-11-28T08:24:23.451Z,1010.57
2018-11-28T08:25:05.055Z,1010.56
2018-11-28T08:25:45.570Z,1010.57
2018-11-28T08:26:25.060Z,1010.52
2018-11-28T08:27:07.330Z,1010.58
2018-11-28T08:27:49.001Z,1010.54
2018-11-28T08:28:32.178Z,1010.51
2018-11-28T08:29:12.780Z,1010.56
2018-11-28T08:29:54.105Z,1010.6
2018-11-28T08:30:36.464Z,1010.48
2018-11-28T08:31:16.698Z,1010.62
2018-11-28T08:31:57.459Z,1010.56
2018-11-28T08:32:38.229Z,1010.61
2018-11-28T08:33:19.990Z,1010.6
2018-11-28T08:34:00.491Z,1010.54
2018-11-28T08:34:41.144Z,1010.52
2018-11-28T08:35:21.680Z,1010.52
2018-11-28T08:36:02.274Z,1010.52
2018-11-28T08:36:43.446Z,1010.53
2018-11-28T08:37:23.651Z,1010.58
2018-11-28T08:38:04.369Z,1010.53
2018-11-28T08:38:45.112Z,1010.51
2018-11-28T08:39:25.862Z,1010.52
2018-11-28T08:40:06.321Z,1010.57
2018-11-28T08:40:46.689Z,1010.48
2018-11-28T08:41:27.122Z,1010.5
2018-11-28T08:42:08.622Z,1010.47
2018-11-28T08:42:48.310Z,1010.42
2018-11-28T08:43:28.993Z,1010.46
2018-11-28T08:44:09.469Z,1010.48
2018-11-28T08:44:50.129Z,1010.44
2018-11-28T08:45:30.525Z,1010.45
2018-11-28T08:46:10.975Z,1010.4
2018-11-28T08:46:51.943Z,1010.43
2018-11-28T08:47:32.873Z,1010.37
2018-11-28T08:48:13.937Z,1010.53
2018-11-28T08:48:54.937Z,1010.52
2018-11-28T08:49:34.984Z,1010.41
2018-11-28T08:50:15.407Z,1010.42
2018-11-28T08:50:56.141Z,1010.35
2018-11-28T08:51:37.385Z,1010.42
2018-11-28T08:52:16.981Z,1010.39
2018-11-28T08:52:58.082Z,1010.43
2018-11-28T08:53:38.759Z,1010.38
2018-11-28T08:54:19.185Z,1010.38
2018-11-28T08:54:59.772Z,1010.38
2018-11-28T08:55:40.118Z,1010.39
2018-11-28T08:56:20.490Z,1010.36
2018-11-28T08:57:01.843Z,1010.35
2018-11-28T08:57:42.515Z,1010.35
2018-11-28T08:58:22.872Z,1010.39
2018-11-28T08:59:03.401Z,1010.38
2018-11-28T08:59:44.719Z,1010.45
2018-11-28T09:00:25.247Z,1010.41
2018-11-28T09:01:05.701Z,1010.48
2018-11-28T09:01:46.077Z,1010.44
2018-11-28T09:02:26.521Z,1010.44
2018-11-28T09:03:06.935Z,1010.49
2018-11-28T09:03:47.320Z,1010.48
2018-11-28T09:05:39.777Z,1010.5
2018-11-28T09:06:20.071Z,1010.49
2018-11-28T09:07:00.571Z,1010.49
2018-11-28T09:09:28.819Z,1010.46
2018-11-28T09:10:09.376Z,1010.41
2018-11-28T09:10:49.636Z,1010.48
2018-11-28T09:11:30.247Z,1010.49
2018-11-28T09:12:10.639Z,1010.46
2018-11-28T09:12:51.055Z,1010.49
2018-11-28T09:13:31.445Z,1010.43
2018-11-28T09:14:12.310Z,1010.46
2018-11-28T09:14:52.761Z,1010.45
2018-11-28T09:15:33.163Z,1010.47
2018-11-28T09:16:13.658Z,1010.47
2018-11-28T09:16:53.992Z,1010.48
2018-11-28T09:17:34.520Z,1010.49
2018-11-28T09:18:14.975Z,1010.48
2018-11-28T09:20:43.709Z,1010.43
2018-11-28T09:21:24.118Z,1010.45
2018-11-28T09:22:04.601Z,1010.46
2018-11-28T09:22:44.951Z,1010.49
2018-11-28T09:23:27.011Z,1010.49
2018-11-28T09:24:07.450Z,1010.41
2018-11-28T09:24:48.128Z,1010.45
2018-11-28T09:25:28.778Z,1010.5
2018-11-28T09:26:09.105Z,1010.46
2018-11-28T09:26:49.500Z,1010.45
2018-11-28T09:27:29.978Z,1010.45
2018-11-28T09:28:10.596Z,1010.48
2018-11-28T09:28:51.418Z,1010.53
2018-11-28T09:29:31.768Z,1010.53
2018-11-28T09:30:13.179Z,1010.53
2018-11-28T09:30:53.597Z,1010.55
2018-11-28T09:33:12.736Z,1010.5
2018-11-28T09:33:52.619Z,1010.47
2018-11-28T09:34:33.167Z,1010.45
2018-11-28T09:35:13.628Z,1010.48
2018-11-28T09:35:55.365Z,1010.47
2018-11-28T09:36:35.786Z,1010.44
2018-11-28T09:37:16.191Z,1010.44
2018-11-28T09:37:56.587Z,1010.42
2018-11-28T09:38:37.024Z,1010.48
2018-11-28T09:39:17.566Z,1010.43
2018-11-28T09:39:58.892Z,1010.41
2018-11-28T09:40:38.795Z,1010.54
2018-11-28T09:41:19.221Z,1010.4
2018-11-28T09:41:59.648Z,1010.47
2018-11-28T09:42:40.042Z,1010.42
2018-11-28T09:43:20.728Z,1010.56
2018-11-28T09:44:01.235Z,1010.44
2018-11-28T09:44:41.675Z,1010.48
2018-11-28T09:45:22.247Z,1010.44
2018-11-28T09:46:03.399Z,1010.59
2018-11-28T09:46:43.887Z,1010.46
2018-11-28T09:47:23.993Z,1010.44
2018-11-28T09:48:04.511Z,1010.51
2018-11-28T09:48:44.797Z,1010.55
2018-11-28T09:49:25.939Z,1010.49
2018-11-28T09:50:06.015Z,1010.53
2018-11-28T09:50:46.413Z,1010.48
2018-11-28T09:51:26.814Z,1010.53
2018-11-28T09:52:07.322Z,1010.53
2018-11-28T09:52:47.816Z,1010.49
2018-11-28T09:53:28.213Z,1010.54
2018-11-28T09:54:08.683Z,1010.51
2018-11-28T09:54:49.027Z,1010.54
2018-11-28T09:56:41.410Z,1010.59
2018-11-28T09:57:24.363Z,1010.52
2018-11-28T09:58:05.007Z,1010.5
2018-11-28T09:58:45.779Z,1010.56
2018-11-28T09:59:26.460Z,1010.53
2018-11-28T10:00:06.935Z,1010.51
2018-11-28T10:00:47.446Z,1010.56
2018-11-28T10:01:27.850Z,1010.53
2018-11-28T10:02:08.327Z,1010.51
2018-11-28T10:02:48.680Z,1010.49
2018-11-28T10:03:29.282Z,1010.57
2018-11-28T10:04:09.820Z,1010.51
2018-11-28T10:04:50.827Z,1010.43
2018-11-28T10:05:32.117Z,1010.48
2018-11-28T10:06:12.627Z,1010.47
2018-11-28T10:06:53.081Z,1010.49
2018-11-28T10:07:33.722Z,1010.47